Time;durP1;ratioP1;P1;durP2;ratioP2;P2;SDS_P1;SDS_P2;PMS_P1;PMS_P2;Temp;Humidity;BMP_temperature;BMP_pressure;BME280_temperature;BME280_humidity;BME280_pressure;Samples;Min_cycle;Max_cycle;Signal;HPM_P1;HPM_P2
2023/05/18 00:02:16;;;;;;;;;;;;;;;12.92;100.00;99726.91;4992356;28;19918;-80
2023/05/18 00:04:42;;;;;;;;;;;;;;;12.92;100.00;99721.63;4991890;28;19914;-81
2023/05/18 00:07:09;;;;;;;;;;;;;;;12.91;100.00;99735.84;4991996;28;20390;-79
2023/05/18 00:09:35;;;;;;;;;;;;;;;12.97;100.00;99721.97;4992401;28;20051;-81
2023/05/18 00:12:01;;;;;;;;;;;;;;;12.94;100.00;99714.34;4991883;28;20358;-80
2023/05/18 00:14:27;;;;;;;;;;;;;;;12.82;100.00;99715.59;4991876;28;19921;-80
2023/05/18 00:16:53;;;;;;;;;;;;;;;12.86;100.00;99714.28;4991372;28;19929;-80
2023/05/18 00:19:19;;;;;;;;;;;;;;;12.90;100.00;99719.09;4991924;28;19922;-81
2023/05/18 00:21:45;;;;;;;;;;;;;;;12.92;100.00;99721.63;4991582;28;20294;-82
2023/05/18 00:24:11;;;;;;;;;;;;;;;12.91;100.00;99722.59;4991850;28;19918;-79
2023/05/18 00:26:37;;;;;;;;;;;;;;;12.93;100.00;99723.28;4991657;28;19929;-80
2023/05/18 00:29:03;;;;;;;;;;;;;;;12.96;100.00;99720.34;4991619;28;19918;-79
2023/05/18 00:31:28;;;;;;;;;;;;;;;12.99;100.00;99733.25;4991613;28;19920;-81
2023/05/18 00:33:53;;;;;;;;;;;;;;;12.97;100.00;99728.09;4991405;28;19925;-81
2023/05/18 00:36:19;;;;;;;;;;;;;;;12.85;100.00;99736.44;4990508;28;20385;-82
2023/05/18 00:38:44;;;;;;;;;;;;;;;12.79;100.00;99727.28;4990118;28;19921;-82
2023/05/18 00:41:10;;;;;;;;;;;;;;;12.81;100.00;99727.16;4990210;28;20016;-80
2023/05/18 00:43:35;;;;;;;;;;;;;;;12.85;100.00;99728.50;4991666;28;19960;-82
2023/05/18 00:46:00;;;;;;;;;;;;;;;12.86;100.00;99732.81;4991567;28;19925;-82
2023/05/18 00:48:26;;;;;;;;;;;;;;;12.88;100.00;99738.81;4990488;28;19922;-83
2023/05/18 00:50:52;;;;;;;;;;;;;;;12.82;100.00;99732.31;4990085;28;19924;-82
2023/05/18 00:53:17;;;;;;;;;;;;;;;12.78;100.00;99724.81;4991679;28;19922;-83
2023/05/18 00:55:42;;;;;;;;;;;;;;;12.72;100.00;99732.38;4991604;28;19924;-83
2023/05/18 00:58:08;;;;;;;;;;;;;;;12.75;100.00;99735.72;4989684;28;20396;-82
2023/05/18 01:00:36;;;;;;;;;;;;;;;12.73;100.00;99739.34;4989281;28;19922;-82
2023/05/18 01:03:02;;;;;;;;;;;;;;;12.75;100.00;99738.34;4989577;28;20220;-81
2023/05/18 01:05:27;;;;;;;;;;;;;;;12.80;100.00;99738.72;4993241;28;19918;-81
2023/05/18 01:07:55;;;;;;;;;;;;;;;12.80;100.00;99733.44;4993969;28;19933;-81
2023/05/18 01:10:20;;;;;;;;;;;;;;;12.72;100.00;99742.97;4995733;28;19925;-80
2023/05/18 01:12:48;;;;;;;;;;;;;;;12.73;100.00;99731.38;4995054;28;19921;-78
2023/05/18 01:15:15;;;;;;;;;;;;;;;12.76;100.00;99738.22;4995571;28;19922;-80
2023/05/18 01:17:49;;;;;;;;;;;;;;;12.77;100.00;99734.59;4992138;28;19917;-80
2023/05/18 01:20:22;;;;;;;;;;;;;;;12.69;100.00;99737.97;4990410;28;20457;-80
2023/05/18 01:23:08;;;;;;;;;;;;;;;12.64;100.00;99734.97;4991784;28;20712;-81
2023/05/18 01:25:59;;;;;;;;;;;;;;;12.56;100.00;99736.69;4988725;28;20336;-81
2023/05/18 01:28:30;;;;;;;;;;;;;;;12.48;100.00;99734.81;4991569;28;20293;-80
2023/05/18 01:30:57;;;;;;;;;;;;;;;12.51;100.00;99734.50;4989796;28;19938;-82
2023/05/18 01:33:23;;;;;;;;;;;;;;;12.56;100.00;99729.56;4991630;28;19918;-84
2023/05/18 01:35:49;;;;;;;;;;;;;;;12.56;100.00;99732.22;4991015;28;19917;-81
2023/05/18 01:38:26;;;;;;;;;;;;;;;12.55;100.00;99730.56;4991554;28;20275;-81
2023/05/18 01:40:57;;;;;;;;;;;;;;;12.47;100.00;99722.56;4994730;28;20355;-82
2023/05/18 01:43:27;;;;;;;;;;;;;;;12.35;100.00;99723.75;4994455;28;19956;-82
2023/05/18 01:45:54;;;;;;;;;;;;;;;12.29;100.00;99727.00;4994543;28;19979;-81
2023/05/18 01:48:22;;;;;;;;;;;;;;;12.21;100.00;99721.63;4993469;28;20048;-81
2023/05/18 01:50:48;;;;;;;;;;;;;;;12.19;100.00;99724.41;4994151;28;19917;-81
2023/05/18 01:53:22;;;;;;;;;;;;;;;12.22;100.00;99724.13;4993473;28;19917;-83
2023/05/18 01:55:49;;;;;;;;;;;;;;;12.20;100.00;99719.94;4994314;28;19917;-84
2023/05/18 01:58:15;;;;;;;;;;;;;;;12.22;100.00;99720.63;4993136;28;19941;-84
2023/05/18 02:00:41;;;;;;;;;;;;;;;12.14;100.00;99723.19;4993319;28;19918;-84
2023/05/18 02:03:07;;;;;;;;;;;;;;;12.06;100.00;99723.09;4994679;28;19928;-84
2023/05/18 02:05:33;;;;;;;;;;;;;;;12.02;100.00;99721.72;4993167;28;19918;-81
2023/05/18 02:07:59;;;;;;;;;;;;;;;12.12;100.00;99726.00;4992950;28;20484;-84
2023/05/18 02:10:26;;;;;;;;;;;;;;;12.15;100.00;99724.84;4993162;28;19988;-82
2023/05/18 02:12:52;;;;;;;;;;;;;;;12.13;100.00;99724.19;4993805;28;19918;-84
2023/05/18 02:15:18;;;;;;;;;;;;;;;12.20;100.00;99730.53;4993249;28;19964;-83
2023/05/18 02:17:43;;;;;;;;;;;;;;;12.28;100.00;99722.69;4994330;28;19917;-83
2023/05/18 02:20:09;;;;;;;;;;;;;;;12.30;100.00;99715.44;4992725;28;19922;-82
2023/05/18 02:22:35;;;;;;;;;;;;;;;12.34;100.00;99719.44;4992637;28;19925;-82
2023/05/18 02:25:01;;;;;;;;;;;;;;;12.33;100.00;99715.13;4992618;28;19922;-83
2023/05/18 02:27:27;;;;;;;;;;;;;;;12.36;100.00;99714.00;4976836;28;20212;-82
2023/05/18 02:29:53;;;;;;;;;;;;;;;12.37;100.00;99710.38;4993464;28;19918;-82
2023/05/18 02:32:18;;;;;;;;;;;;;;;12.41;100.00;99712.56;4994226;28;19917;-81
2023/05/18 02:34:45;;;;;;;;;;;;;;;12.44;100.00;99714.91;4992682;28;19925;-82
2023/05/18 02:37:12;;;;;;;;;;;;;;;12.48;100.00;99713.63;4993830;28;19917;-82
2023/05/18 02:39:37;;;;;;;;;;;;;;;12.45;100.00;99716.56;4992306;28;19972;-83
2023/05/18 02:42:03;;;;;;;;;;;;;;;12.41;100.00;99715.22;4993762;28;19918;-83
2023/05/18 02:44:28;;;;;;;;;;;;;;;12.43;100.00;99720.38;5016872;28;19959;-82
2023/05/18 02:46:53;;;;;;;;;;;;;;;12.45;100.00;99719.22;4981775;28;20340;-82
2023/05/18 02:49:19;;;;;;;;;;;;;;;12.32;100.00;99713.47;4985262;28;20642;-81
2023/05/18 02:51:44;;;;;;;;;;;;;;;12.32;100.00;99714.28;4984967;28;19924;-81
2023/05/18 02:54:11;;;;;;;;;;;;;;;12.34;100.00;99716.78;4986860;28;19918;-81
2023/05/18 02:56:40;;;;;;;;;;;;;;;12.37;100.00;99716.47;4985492;28;20493;-80
2023/05/18 02:59:30;;;;;;;;;;;;;;;12.36;100.00;99720.13;4992016;28;20083;-79
2023/05/18 03:01:56;;;;;;;;;;;;;;;12.35;100.00;99717.63;4995908;28;20379;-81
2023/05/18 03:04:24;;;;;;;;;;;;;;;12.18;100.00;99722.75;4996397;28;19921;-82
2023/05/18 03:06:52;;;;;;;;;;;;;;;12.14;100.00;99723.19;4992954;28;19984;-81
2023/05/18 03:09:18;;;;;;;;;;;;;;;12.19;100.00;99720.94;4992593;28;20383;-81
2023/05/18 03:11:44;;;;;;;;;;;;;;;12.25;100.00;99712.41;4992327;28;19921;-81
2023/05/18 03:14:10;;;;;;;;;;;;;;;12.30;100.00;99718.09;4992430;28;20298;-82
2023/05/18 03:16:37;;;;;;;;;;;;;;;12.30;100.00;99713.63;4992775;28;19994;-81
2023/05/18 03:19:04;;;;;;;;;;;;;;;12.35;100.00;99722.91;4991675;28;19923;-79
2023/05/18 03:21:35;;;;;;;;;;;;;;;12.36;100.00;99714.84;4991950;28;20290;-79
2023/05/18 03:24:03;;;;;;;;;;;;;;;12.35;100.00;99721.13;4994199;28;20437;-78
2023/05/18 03:26:30;;;;;;;;;;;;;;;12.31;100.00;99715.25;4993357;28;19918;-80
2023/05/18 03:28:56;;;;;;;;;;;;;;;12.20;100.00;99714.66;4996422;28;19983;-80
2023/05/18 03:31:22;;;;;;;;;;;;;;;12.26;100.00;99716.69;5001282;28;19917;-78
2023/05/18 03:33:47;;;;;;;;;;;;;;;12.27;100.00;99721.00;4996917;28;19917;-78
2023/05/18 03:36:13;;;;;;;;;;;;;;;12.29;100.00;99729.66;4992993;28;19918;-79
2023/05/18 03:38:39;;;;;;;;;;;;;;;12.24;100.00;99727.44;4991729;28;19917;-80
2023/05/18 03:41:08;;;;;;;;;;;;;;;12.25;100.00;99728.28;4991419;28;19925;-82
2023/05/18 03:43:33;;;;;;;;;;;;;;;12.17;100.00;99714.97;4990964;28;19918;-82
2023/05/18 03:46:00;;;;;;;;;;;;;;;12.10;100.00;99724.47;4991678;28;20004;-83
2023/05/18 03:48:25;;;;;;;;;;;;;;;12.06;100.00;99723.94;4991676;28;20358;-82
2023/05/18 03:50:51;;;;;;;;;;;;;;;11.96;100.00;99727.63;4991264;28;19972;-82
2023/05/18 03:53:17;;;;;;;;;;;;;;;12.02;100.00;99733.13;4992555;28;19928;-78
2023/05/18 03:55:43;;;;;;;;;;;;;;;11.94;100.00;99724.28;4990708;28;19921;-80
2023/05/18 03:58:09;;;;;;;;;;;;;;;11.88;100.00;99737.13;4991971;28;20289;-81
2023/05/18 04:00:34;;;;;;;;;;;;;;;11.92;100.00;99736.81;4992180;28;19926;-82
2023/05/18 04:03:01;;;;;;;;;;;;;;;11.85;100.00;99736.56;4991803;28;19922;-82
2023/05/18 04:05:27;;;;;;;;;;;;;;;11.79;100.00;99732.69;4992480;28;20517;-81
2023/05/18 04:07:52;;;;;;;;;;;;;;;11.88;100.00;99726.53;4991905;28;19925;-82
2023/05/18 04:10:20;;;;;;;;;;;;;;;11.89;100.00;99733.50;4991002;28;19918;-82
2023/05/18 04:12:45;;;;;;;;;;;;;;;11.76;100.00;99733.00;4991647;28;19918;-81
2023/05/18 04:15:13;;;;;;;;;;;;;;;11.77;100.00;99739.13;4990572;28;19924;-83
2023/05/18 04:17:42;;;;;;;;;;;;;;;11.74;100.00;99745.53;4991080;28;19965;-84
2023/05/18 04:20:11;;;;;;;;;;;;;;;11.75;100.00;99751.66;4991775;28;19926;-81
2023/05/18 04:22:45;;;;;;;;;;;;;;;11.78;100.00;99746.88;4992380;28;19922;-84
2023/05/18 04:25:10;;;;;;;;;;;;;;;11.84;100.00;99746.31;4991995;28;19914;-83
2023/05/18 04:27:38;;;;;;;;;;;;;;;11.82;100.00;99758.03;4991842;28;20004;-80
2023/05/18 04:30:04;;;;;;;;;;;;;;;11.89;100.00;99759.94;4973849;28;19920;-81
2023/05/18 04:32:34;;;;;;;;;;;;;;;11.89;100.00;99754.66;4990659;28;19918;-81
2023/05/18 04:35:02;;;;;;;;;;;;;;;11.90;100.00;99753.66;4986587;28;19957;-82
2023/05/18 04:37:28;;;;;;;;;;;;;;;11.96;100.00;99754.06;4990937;28;20004;-81
2023/05/18 04:39:53;;;;;;;;;;;;;;;11.99;100.00;99765.19;4991481;28;20024;-80
2023/05/18 04:42:19;;;;;;;;;;;;;;;11.98;100.00;99768.78;4994140;28;19964;-81
2023/05/18 04:44:47;;;;;;;;;;;;;;;11.96;100.00;99762.00;4993823;28;20008;-82
2023/05/18 04:47:13;;;;;;;;;;;;;;;12.07;100.00;99767.09;4994403;28;20071;-82
2023/05/18 04:49:39;;;;;;;;;;;;;;;12.12;100.00;99770.97;4994331;28;19924;-82
2023/05/18 04:52:06;;;;;;;;;;;;;;;12.16;100.00;99766.19;4994078;28;19921;-82
2023/05/18 04:54:32;;;;;;;;;;;;;;;12.21;100.00;99763.94;4992378;28;19925;-81
2023/05/18 04:56:58;;;;;;;;;;;;;;;12.28;100.00;99765.03;4990949;28;19918;-83
2023/05/18 04:59:25;;;;;;;;;;;;;;;12.30;100.00;99763.06;4990623;28;19926;-83
2023/05/18 05:01:51;;;;;;;;;;;;;;;12.33;100.00;99773.34;4986194;28;19971;-86
2023/05/18 05:04:17;;;;;;;;;;;;;;;12.28;100.00;99770.31;4991800;28;19922;-86
2023/05/18 05:06:42;;;;;;;;;;;;;;;12.23;100.00;99769.94;4990946;28;20028;-85
2023/05/18 05:09:08;;;;;;;;;;;;;;;12.21;100.00;99774.53;4990137;28;19917;-85
2023/05/18 05:11:33;;;;;;;;;;;;;;;12.16;100.00;99771.50;4990439;28;20006;-86
2023/05/18 05:14:00;;;;;;;;;;;;;;;12.21;100.00;99771.88;4986993;28;19924;-86
2023/05/18 05:16:25;;;;;;;;;;;;;;;12.24;100.00;99779.53;4989901;28;19957;-84
2023/05/18 05:18:50;;;;;;;;;;;;;;;12.26;100.00;99781.03;4993996;28;19949;-86
2023/05/18 05:21:16;;;;;;;;;;;;;;;12.32;100.00;99783.09;4994032;28;20013;-85
2023/05/18 05:23:41;;;;;;;;;;;;;;;12.26;100.00;99782.84;4989734;28;19925;-81
2023/05/18 05:26:08;;;;;;;;;;;;;;;12.22;100.00;99782.31;4986917;28;19918;-80
2023/05/18 05:28:33;;;;;;;;;;;;;;;12.20;100.00;99786.09;4994877;28;20000;-80
2023/05/18 05:30:59;;;;;;;;;;;;;;;12.17;100.00;99779.28;4987282;28;19918;-78
2023/05/18 05:33:24;;;;;;;;;;;;;;;12.14;100.00;99784.03;4991286;28;19922;-77
2023/05/18 05:35:50;;;;;;;;;;;;;;;12.13;100.00;99782.38;4982729;28;19965;-78
2023/05/18 05:38:16;;;;;;;;;;;;;;;12.17;100.00;99786.38;4994538;28;20406;-84
2023/05/18 05:40:41;;;;;;;;;;;;;;;12.29;100.00;99782.56;4989378;28;20382;-84
2023/05/18 05:43:07;;;;;;;;;;;;;;;12.38;100.00;99792.25;4992647;28;20396;-82
2023/05/18 05:45:33;;;;;;;;;;;;;;;12.46;100.00;99784.41;4985702;28;19918;-79
2023/05/18 05:48:02;;;;;;;;;;;;;;;12.51;100.00;99787.44;4991320;28;19918;-80
2023/05/18 05:50:30;;;;;;;;;;;;;;;12.64;100.00;99797.66;4992297;28;19924;-81
2023/05/18 05:52:59;;;;;;;;;;;;;;;12.68;100.00;99794.56;4986717;28;19918;-78
2023/05/18 05:55:25;;;;;;;;;;;;;;;12.79;100.00;99790.84;4994705;28;20273;-78
2023/05/18 05:57:51;;;;;;;;;;;;;;;12.85;100.00;99789.41;4989331;28;19940;-80
2023/05/18 06:00:16;;;;;;;;;;;;;;;12.87;100.00;99792.75;4992630;28;19980;-83
2023/05/18 06:02:57;;;;;;;;;;;;;;;12.92;100.00;99790.47;4991255;28;19972;-81
2023/05/18 06:05:31;;;;;;;;;;;;;;;12.91;100.00;99788.81;4989555;28;20669;-81
2023/05/18 06:07:56;;;;;;;;;;;;;;;13.03;100.00;99798.19;4987916;28;19921;-82
2023/05/18 06:10:22;;;;;;;;;;;;;;;13.08;100.00;99795.91;4993475;28;19983;-83
2023/05/18 06:12:48;;;;;;;;;;;;;;;13.13;100.00;99801.66;4995959;28;19924;-81
2023/05/18 06:15:14;;;;;;;;;;;;;;;13.15;100.00;99802.31;4975074;28;20357;-82
2023/05/18 06:17:42;;;;;;;;;;;;;;;13.19;100.00;99803.69;4993729;28;19925;-82
2023/05/18 06:20:09;;;;;;;;;;;;;;;13.27;100.00;99806.38;4993209;28;19925;-81
2023/05/18 06:22:35;;;;;;;;;;;;;;;13.32;100.00;99805.91;4992927;28;19918;-83
2023/05/18 06:25:26;;;;;;;;;;;;;;;13.42;100.00;99799.56;4995007;28;19921;-82
2023/05/18 06:28:09;;;;;;;;;;;;;;;13.44;100.00;99805.50;4991075;28;20060;-83
2023/05/18 06:30:52;;;;;;;;;;;;;;;13.35;100.00;99817.06;4982333;28;20255;-82
2023/05/18 06:33:28;;;;;;;;;;;;;;;13.40;100.00;99812.13;4995361;28;19917;-82
2023/05/18 06:35:53;;;;;;;;;;;;;;;13.39;100.00;99815.75;4995075;28;19932;-82
2023/05/18 06:38:19;;;;;;;;;;;;;;;13.41;100.00;99819.09;4995901;28;19984;-83
2023/05/18 06:40:44;;;;;;;;;;;;;;;13.48;100.00;99820.13;4996418;28;20294;-83
2023/05/18 06:43:09;;;;;;;;;;;;;;;13.51;100.00;99817.16;4985547;28;19918;-83
2023/05/18 06:45:55;;;;;;;;;;;;;;;13.57;100.00;99818.38;4993597;28;19930;-82
2023/05/18 06:48:29;;;;;;;;;;;;;;;13.61;100.00;99827.66;4990252;28;19920;-82
2023/05/18 06:50:54;;;;;;;;;;;;;;;13.57;100.00;99822.81;4993342;28;20426;-82
2023/05/18 06:53:21;;;;;;;;;;;;;;;13.58;100.00;99827.16;4993112;28;20345;-83
2023/05/18 06:55:46;;;;;;;;;;;;;;;13.49;100.00;99823.59;4992378;28;19922;-81
2023/05/18 06:58:12;;;;;;;;;;;;;;;13.46;100.00;99838.00;4994280;28;19997;-84
2023/05/18 07:00:38;;;;;;;;;;;;;;;13.51;100.00;99835.72;4976514;28;20419;-83
2023/05/18 07:03:04;;;;;;;;;;;;;;;13.56;100.00;99831.75;4992868;28;19918;-82
2023/05/18 07:05:30;;;;;;;;;;;;;;;13.60;100.00;99841.94;4989546;28;19925;-84
2023/05/18 07:07:55;;;;;;;;;;;;;;;13.66;100.00;99835.16;4993100;28;19917;-82
2023/05/18 07:10:21;;;;;;;;;;;;;;;13.69;100.00;99838.34;4993811;28;20064;-82
2023/05/18 07:12:47;;;;;;;;;;;;;;;13.74;100.00;99841.34;4993512;28;19921;-82
2023/05/18 07:15:12;;;;;;;;;;;;;;;13.82;100.00;99840.56;4993641;28;19924;-83
2023/05/18 07:17:38;;;;;;;;;;;;;;;13.79;100.00;99839.06;4993718;28;20011;-83
2023/05/18 07:20:05;;;;;;;;;;;;;;;13.86;100.00;99834.78;4993309;28;19968;-82
2023/05/18 07:22:31;;;;;;;;;;;;;;;13.85;100.00;99848.19;4991681;28;19922;-82
2023/05/18 07:24:57;;;;;;;;;;;;;;;13.92;100.00;99841.28;5002596;28;20425;-82
2023/05/18 07:27:23;;;;;;;;;;;;;;;13.97;100.00;99836.34;5004698;28;19942;-82
2023/05/18 07:29:48;;;;;;;;;;;;;;;14.03;100.00;99838.38;5004485;28;19917;-83
2023/05/18 07:32:14;;;;;;;;;;;;;;;14.10;100.00;99841.22;5004984;28;19918;-82
2023/05/18 07:34:41;;;;;;;;;;;;;;;14.18;100.00;99852.72;5000832;28;19917;-83
2023/05/18 07:37:07;;;;;;;;;;;;;;;14.24;100.00;99854.75;4994665;28;19917;-82
2023/05/18 07:39:32;;;;;;;;;;;;;;;14.33;100.00;99850.28;4994715;28;20380;-82
2023/05/18 07:41:58;;;;;;;;;;;;;;;14.37;100.00;99853.47;4993312;28;19917;-83
2023/05/18 07:44:23;;;;;;;;;;;;;;;14.45;100.00;99856.16;4992944;28;20302;-83
2023/05/18 07:46:50;;;;;;;;;;;;;;;14.45;100.00;99857.00;4992626;28;19937;-83
2023/05/18 07:49:15;;;;;;;;;;;;;;;14.52;100.00;99857.19;4992885;28;19921;-83
2023/05/18 07:51:41;;;;;;;;;;;;;;;14.61;100.00;99845.59;4992178;28;20294;-82
2023/05/18 07:54:06;;;;;;;;;;;;;;;14.68;100.00;99852.75;4992660;28;19921;-83
2023/05/18 07:56:31;;;;;;;;;;;;;;;14.75;100.00;99847.66;4991291;28;20798;-83
2023/05/18 07:58:57;;;;;;;;;;;;;;;14.88;100.00;99853.31;4992620;28;20353;-83
2023/05/18 08:01:26;;;;;;;;;;;;;;;15.03;100.00;99851.69;4992244;28;20384;-82
2023/05/18 08:03:52;;;;;;;;;;;;;;;15.15;100.00;99850.38;4991838;28;20392;-83
2023/05/18 08:06:17;;;;;;;;;;;;;;;15.31;100.00;99848.72;4992012;28;19921;-83
2023/05/18 08:08:42;;;;;;;;;;;;;;;15.37;100.00;99848.91;4991437;28;19918;-83
2023/05/18 08:11:08;;;;;;;;;;;;;;;15.41;100.00;99854.72;4994070;28;20014;-82
2023/05/18 08:13:33;;;;;;;;;;;;;;;15.51;100.00;99856.19;4992679;28;19924;-82
2023/05/18 08:15:58;;;;;;;;;;;;;;;15.54;100.00;99849.75;4995035;28;19917;-82
2023/05/18 08:18:43;;;;;;;;;;;;;;;15.60;100.00;99858.88;4992981;28;20281;-83
2023/05/18 08:21:09;;;;;;;;;;;;;;;15.65;100.00;99846.75;4993324;28;19917;-83
2023/05/18 08:23:35;;;;;;;;;;;;;;;15.75;100.00;99857.19;4995105;28;19929;-83
2023/05/18 08:26:04;;;;;;;;;;;;;;;15.82;100.00;99861.69;4994086;28;19918;-83
2023/05/18 08:28:30;;;;;;;;;;;;;;;15.85;100.00;99864.00;4993558;28;20370;-83
2023/05/18 08:30:55;;;;;;;;;;;;;;;15.85;100.00;99858.66;4992778;28;20048;-81
2023/05/18 08:33:22;;;;;;;;;;;;;;;15.85;100.00;99858.66;4992624;28;19945;-83
2023/05/18 08:35:47;;;;;;;;;;;;;;;15.88;100.00;99854.84;4992541;28;19925;-83
2023/05/18 08:38:13;;;;;;;;;;;;;;;15.87;100.00;99862.00;4992246;28;19920;-83
2023/05/18 08:40:45;;;;;;;;;;;;;;;15.91;100.00;99857.16;4992005;28;20278;-83
2023/05/18 08:43:17;;;;;;;;;;;;;;;15.91;100.00;99858.00;4991695;28;20251;-84
2023/05/18 08:45:43;;;;;;;;;;;;;;;15.96;100.00;99855.66;4991261;28;19941;-84
2023/05/18 08:48:09;;;;;;;;;;;;;;;16.00;100.00;99852.66;4991285;28;20374;-82
2023/05/18 08:50:37;;;;;;;;;;;;;;;16.08;100.00;99853.47;4990200;28;20260;-83
2023/05/18 08:53:05;;;;;;;;;;;;;;;16.16;100.00;99855.28;4991397;28;19953;-82
2023/05/18 08:55:35;;;;;;;;;;;;;;;16.22;100.00;99857.25;4988534;28;19925;-83
2023/05/18 08:58:01;;;;;;;;;;;;;;;16.23;100.00;99861.59;4986788;28;20412;-84
2023/05/18 09:00:26;;;;;;;;;;;;;;;16.20;100.00;99861.94;4991708;28;19929;-83
2023/05/18 09:02:52;;;;;;;;;;;;;;;16.20;100.00;99875.25;4991387;28;19961;-83
2023/05/18 09:05:19;;;;;;;;;;;;;;;16.22;100.00;99870.56;4991601;28;19918;-84
2023/05/18 09:07:44;;;;;;;;;;;;;;;16.21;100.00;99866.25;4990952;28;20391;-83
2023/05/18 09:10:12;;;;;;;;;;;;;;;16.21;100.00;99874.22;4989973;28;19928;-83
2023/05/18 09:12:38;;;;;;;;;;;;;;;16.18;100.00;99890.56;4991332;28;20259;-83
2023/05/18 09:15:04;;;;;;;;;;;;;;;16.18;100.00;99885.22;4991122;28;20016;-83
2023/05/18 09:17:29;;;;;;;;;;;;;;;16.21;100.00;99895.53;4991374;28;19964;-83
2023/05/18 09:19:54;;;;;;;;;;;;;;;16.21;100.00;99892.88;4990951;28;20332;-83
2023/05/18 09:22:20;;;;;;;;;;;;;;;16.17;100.00;99904.88;4989722;28;20004;-83
2023/05/18 09:24:46;;;;;;;;;;;;;;;16.11;100.00;99897.56;4990943;28;19918;-84
2023/05/18 09:27:11;;;;;;;;;;;;;;;16.10;100.00;99898.56;4989572;28;19964;-83
2023/05/18 09:29:49;;;;;;;;;;;;;;;16.05;100.00;99898.22;4990102;28;19922;-83
2023/05/18 09:32:15;;;;;;;;;;;;;;;16.03;100.00;99902.88;4991357;28;20016;-83
2023/05/18 09:34:41;;;;;;;;;;;;;;;16.01;100.00;99894.25;4991055;28;19972;-83
2023/05/18 09:37:07;;;;;;;;;;;;;;;15.96;100.00;99900.91;4990665;28;19917;-82
2023/05/18 09:39:34;;;;;;;;;;;;;;;15.96;100.00;99898.25;4973644;28;19918;-81
2023/05/18 09:42:02;;;;;;;;;;;;;;;15.93;100.00;99903.09;4986237;28;20052;-83
2023/05/18 09:44:29;;;;;;;;;;;;;;;15.88;100.00;99900.94;4991005;28;19930;-82
2023/05/18 09:46:55;;;;;;;;;;;;;;;15.88;100.00;99905.41;4990623;28;20473;-83
2023/05/18 09:49:21;;;;;;;;;;;;;;;15.89;100.00;99907.91;4991114;28;20117;-83
2023/05/18 09:51:47;;;;;;;;;;;;;;;15.91;100.00;99907.72;4990561;28;19969;-83
2023/05/18 09:54:12;;;;;;;;;;;;;;;15.92;100.00;99912.91;4991142;28;19999;-83
2023/05/18 09:56:38;;;;;;;;;;;;;;;15.92;100.00;99910.22;4990987;28;20251;-82
2023/05/18 09:59:13;;;;;;;;;;;;;;;15.89;100.00;99913.25;4991003;28;19945;-82
2023/05/18 10:01:59;;;;;;;;;;;;;;;15.89;100.00;99907.91;4995040;28;20370;-83
2023/05/18 10:04:38;;;;;;;;;;;;;;;15.87;100.00;99907.25;4994706;28;20028;-82
2023/05/18 10:07:14;;;;;;;;;;;;;;;15.86;100.00;99913.56;4996889;28;20020;-82
2023/05/18 10:09:40;;;;;;;;;;;;;;;15.89;100.00;99913.25;4994438;28;19918;-83
2023/05/18 10:12:09;;;;;;;;;;;;;;;15.88;100.00;99910.75;4995947;28;19922;-82
2023/05/18 10:14:35;;;;;;;;;;;;;;;15.93;100.00;99914.56;4991202;28;20005;-83
2023/05/18 10:17:02;;;;;;;;;;;;;;;15.96;100.00;99918.72;4993937;28;20045;-82
2023/05/18 10:19:29;;;;;;;;;;;;;;;15.96;100.00;99916.88;4995248;28;19917;-83
2023/05/18 10:21:54;;;;;;;;;;;;;;;15.96;100.00;99913.41;4994562;28;19926;-83
2023/05/18 10:24:20;;;;;;;;;;;;;;;15.92;100.00;99918.22;4995443;28;19918;-84
2023/05/18 10:26:47;;;;;;;;;;;;;;;15.94;100.00;99916.22;4994110;28;19925;-84
2023/05/18 10:29:13;;;;;;;;;;;;;;;15.97;100.00;99915.88;4992835;28;20393;-84
2023/05/18 10:31:39;;;;;;;;;;;;;;;15.95;100.00;99917.91;4976230;28;20402;-84
2023/05/18 10:34:07;;;;;;;;;;;;;;;15.98;100.00;99912.22;4993654;28;19917;-84
2023/05/18 10:36:34;;;;;;;;;;;;;;;16.00;100.00;99911.22;4994813;28;19925;-83
2023/05/18 10:39:01;;;;;;;;;;;;;;;16.01;100.00;99912.91;4987950;28;19940;-82
2023/05/18 10:41:29;;;;;;;;;;;;;;;16.01;100.00;99915.56;4993390;28;19917;-83
2023/05/18 10:44:01;;;;;;;;;;;;;;;16.04;100.00;99909.88;4992192;28;20405;-83
2023/05/18 10:46:27;;;;;;;;;;;;;;;15.95;100.00;99912.56;4995198;28;19925;-83
2023/05/18 10:48:52;;;;;;;;;;;;;;;15.96;100.00;99908.88;4994743;28;20286;-83
2023/05/18 10:51:19;;;;;;;;;;;;;;;16.00;100.00;99913.88;4993536;28;19918;-83
2023/05/18 10:53:46;;;;;;;;;;;;;;;15.97;100.00;99907.06;4992938;28;20378;-83
2023/05/18 10:56:12;;;;;;;;;;;;;;;15.98;100.00;99906.91;4993436;28;20009;-82
2023/05/18 10:58:38;;;;;;;;;;;;;;;15.96;100.00;99903.56;4993340;28;19918;-83
2023/05/18 11:01:05;;;;;;;;;;;;;;;16.00;100.00;99911.22;4992911;28;19928;-83
2023/05/18 11:03:31;;;;;;;;;;;;;;;15.98;100.00;99909.56;4989526;28;20425;-83
2023/05/18 11:06:06;;;;;;;;;;;;;;;15.97;100.00;99905.22;4992713;28;19925;-83
2023/05/18 11:08:32;;;;;;;;;;;;;;;15.95;100.00;99904.59;4989022;28;19924;-83
2023/05/18 11:11:00;;;;;;;;;;;;;;;15.98;100.00;99906.91;4992754;28;19918;-83
2023/05/18 11:13:27;;;;;;;;;;;;;;;15.99;100.00;99899.75;4993020;28;19980;-83
2023/05/18 11:15:53;;;;;;;;;;;;;;;16.02;100.00;99898.59;4992931;28;19918;-83
2023/05/18 11:18:18;;;;;;;;;;;;;;;16.04;100.00;99899.22;4992000;28;19918;-83
2023/05/18 11:20:44;;;;;;;;;;;;;;;16.02;100.00;99901.25;4993219;28;20003;-83
2023/05/18 11:23:09;;;;;;;;;;;;;;;16.03;100.00;99902.88;5007586;28;19917;-82
2023/05/18 11:25:35;;;;;;;;;;;;;;;16.06;100.00;99891.91;5004228;28;19914;-83
2023/05/18 11:28:03;;;;;;;;;;;;;;;16.07;100.00;99893.59;5006889;28;19925;-82
2023/05/18 11:30:31;;;;;;;;;;;;;;;16.09;100.00;99891.56;5006404;28;19925;-82
2023/05/18 11:33:17;;;;;;;;;;;;;;;16.15;100.00;99893.53;5001049;28;19917;-82
2023/05/18 11:36:01;;;;;;;;;;;;;;;16.15;100.00;99885.56;4977327;28;19925;-82
2023/05/18 11:38:46;;;;;;;;;;;;;;;16.21;100.00;99885.72;4994226;28;19917;-83
2023/05/18 11:41:46;;;;;;;;;;;;;;;16.20;100.00;99883.25;4990650;28;19917;-82
2023/05/18 11:44:12;;;;;;;;;;;;;;;16.17;100.00;99883.56;4981822;28;19917;-83
2023/05/18 11:46:51;;;;;;;;;;;;;;;16.18;100.00;99885.22;4994879;28;20063;-83
2023/05/18 11:49:17;;;;;;;;;;;;;;;16.22;100.00;99887.38;4994871;28;19928;-82
2023/05/18 11:51:56;;;;;;;;;;;;;;;16.27;100.00;99884.19;4994424;28;19918;-83
2023/05/18 11:54:22;;;;;;;;;;;;;;;16.27;100.00;99874.38;4995685;28;20362;-82
2023/05/18 11:56:49;;;;;;;;;;;;;;;16.30;100.00;99873.22;4995613;28;20008;-83
2023/05/18 11:59:14;;;;;;;;;;;;;;;16.34;100.00;99879.84;4996163;28;19994;-85
2023/05/18 12:01:40;;;;;;;;;;;;;;;16.36;100.00;99873.38;4993261;28;20012;-81
2023/05/18 12:04:06;;;;;;;;;;;;;;;16.35;100.00;99873.53;4993718;28;19968;-81
2023/05/18 12:06:32;;;;;;;;;;;;;;;16.34;100.00;99879.84;4989418;28;19917;-83
2023/05/18 12:08:58;;;;;;;;;;;;;;;16.32;100.00;99871.19;4993483;28;19918;-78
2023/05/18 12:11:25;;;;;;;;;;;;;;;16.41;100.00;99872.00;4992473;28;19948;-80
2023/05/18 12:13:51;;;;;;;;;;;;;;;16.32;100.00;99865.88;4992431;28;19922;-81
2023/05/18 12:16:17;;;;;;;;;;;;;;;16.37;100.00;99868.88;4992593;28;19918;-80
2023/05/18 12:18:49;;;;;;;;;;;;;;;16.38;100.00;99866.00;4991503;28;20333;-81
2023/05/18 12:21:19;;;;;;;;;;;;;;;16.31;100.00;99864.22;4992539;28;19918;-83
2023/05/18 12:23:45;;;;;;;;;;;;;;;16.32;100.00;99866.69;4990896;28;19960;-81
2023/05/18 12:26:10;;;;;;;;;;;;;;;16.26;100.00;99855.91;4988935;28;19969;-84
2023/05/18 12:28:36;;;;;;;;;;;;;;;16.38;100.00;99862.50;4989122;28;19925;-83
2023/05/18 12:31:06;;;;;;;;;;;;;;;16.48;100.00;99855.19;4988668;28;19921;-82
2023/05/18 12:33:34;;;;;;;;;;;;;;;16.53;100.00;99863.47;5009544;28;19906;-82
2023/05/18 12:35:59;;;;;;;;;;;;;;;16.54;100.00;99864.31;5008908;28;19949;-83
2023/05/18 12:38:26;;;;;;;;;;;;;;;16.59;100.00;99862.81;4993011;28;19933;-84